createdAt,value
2023-03-07T00:01:59.165Z,12.00
2023-03-07T00:04:26.298Z,12.00
2023-03-07T00:06:55.708Z,12.10
2023-03-07T00:09:22.810Z,12.00
2023-03-07T00:11:50.484Z,12.00
2023-03-07T00:14:17.798Z,12.00
2023-03-07T00:16:44.968Z,12.00
2023-03-07T00:19:11.968Z,12.00
2023-03-07T00:21:38.890Z,11.90
2023-03-07T00:24:06.304Z,11.90
2023-03-07T00:26:34.393Z,11.90
2023-03-07T00:29:01.384Z,11.90
2023-03-07T00:31:28.370Z,11.90
2023-03-07T00:33:55.410Z,11.90
2023-03-07T00:36:23.205Z,11.90
2023-03-07T00:38:51.812Z,11.90
2023-03-07T00:41:21.700Z,11.90
2023-03-07T00:43:48.707Z,11.90
2023-03-07T00:46:17.321Z,11.90
2023-03-07T00:48:44.769Z,11.90
2023-03-07T00:51:15.229Z,11.90
2023-03-07T00:53:42.263Z,11.90
2023-03-07T00:56:18.159Z,11.90
2023-03-07T00:58:45.870Z,11.80
2023-03-07T01:01:15.504Z,11.90
2023-03-07T01:03:42.932Z,11.80
2023-03-07T01:06:13.784Z,11.80
2023-03-07T01:08:41.185Z,11.90
2023-03-07T01:11:29.285Z,11.80
2023-03-07T01:13:58.600Z,11.80
2023-03-07T01:16:32.012Z,11.80
2023-03-07T01:19:05.200Z,11.80
2023-03-07T01:21:35.364Z,11.80
2023-03-07T01:24:05.253Z,11.80
2023-03-07T01:26:33.497Z,11.80
2023-03-07T01:29:03.771Z,11.80
2023-03-07T01:31:34.434Z,11.80
2023-03-07T01:34:03.049Z,11.80
2023-03-07T01:36:34.342Z,11.80
2023-03-07T01:39:07.480Z,11.80
2023-03-07T01:41:38.038Z,11.80
2023-03-07T01:44:17.112Z,11.80
2023-03-07T01:46:46.468Z,11.80
2023-03-07T01:49:31.744Z,11.80
2023-03-07T01:52:12.365Z,11.90
2023-03-07T01:54:49.113Z,11.90
2023-03-07T01:57:21.581Z,11.80
2023-03-07T01:59:54.082Z,11.90
2023-03-07T02:02:22.910Z,11.80
2023-03-07T02:04:58.126Z,11.90
2023-03-07T02:07:29.333Z,11.90
2023-03-07T02:09:58.013Z,11.80
2023-03-07T02:12:25.385Z,11.80
2023-03-07T02:14:52.955Z,11.80
2023-03-07T02:17:20.543Z,11.80
2023-03-07T02:20:11.948Z,11.80
2023-03-07T02:22:40.711Z,11.80
2023-03-07T02:25:22.277Z,11.80
2023-03-07T02:27:53.097Z,11.80
2023-03-07T02:30:21.269Z,11.80
2023-03-07T02:32:50.453Z,11.80
2023-03-07T02:35:20.830Z,11.80
2023-03-07T02:37:55.115Z,11.80
2023-03-07T02:40:25.420Z,11.80
2023-03-07T02:42:55.651Z,11.70
2023-03-07T02:45:23.176Z,11.80
2023-03-07T02:47:50.256Z,11.80
2023-03-07T02:50:18.929Z,11.80
2023-03-07T02:52:50.033Z,11.80
2023-03-07T02:55:17.146Z,11.80
2023-03-07T02:57:53.822Z,11.80
2023-03-07T03:00:21.849Z,11.80
2023-03-07T03:02:49.068Z,11.80
2023-03-07T03:05:16.147Z,11.70
2023-03-07T03:07:43.130Z,11.70
2023-03-07T03:10:10.640Z,11.70
2023-03-07T03:12:37.841Z,11.70
2023-03-07T03:15:06.719Z,11.70
2023-03-07T03:17:33.734Z,11.70
2023-03-07T03:20:00.724Z,11.70
2023-03-07T03:22:27.623Z,11.70
2023-03-07T03:24:55.222Z,11.60
2023-03-07T03:27:22.234Z,11.60
2023-03-07T03:29:54.270Z,11.60
2023-03-07T03:32:21.978Z,11.60
2023-03-07T03:34:48.962Z,11.60
2023-03-07T03:37:16.442Z,11.50
2023-03-07T03:39:43.442Z,11.50
2023-03-07T03:42:13.357Z,11.50
2023-03-07T03:44:40.462Z,11.50
2023-03-07T03:47:07.436Z,11.50
2023-03-07T03:49:34.593Z,11.50
2023-03-07T03:52:01.875Z,11.60
2023-03-07T03:54:28.985Z,11.60
2023-03-07T03:56:57.053Z,11.60
2023-03-07T03:59:24.365Z,11.60
2023-03-07T04:01:51.789Z,11.50
2023-03-07T04:04:19.557Z,11.50
2023-03-07T04:06:46.665Z,11.50
2023-03-07T04:09:13.847Z,11.50
2023-03-07T04:11:43.669Z,11.60
2023-03-07T04:14:11.404Z,11.60
2023-03-07T04:16:38.474Z,11.70
2023-03-07T04:19:05.777Z,11.70
2023-03-07T04:21:32.740Z,11.70
2023-03-07T04:24:00.831Z,11.70
2023-03-07T04:26:30.581Z,11.70
2023-03-07T04:28:57.584Z,11.70
2023-03-07T04:31:33.764Z,11.70
2023-03-07T04:34:03.243Z,11.70
2023-03-07T04:36:31.057Z,11.70
2023-03-07T04:38:58.084Z,11.70
2023-03-07T04:41:26.686Z,11.70
2023-03-07T04:44:17.549Z,11.70
2023-03-07T04:46:44.549Z,11.70
2023-03-07T04:49:11.718Z,11.70
2023-03-07T04:51:43.037Z,11.70
2023-03-07T04:54:11.745Z,11.60
2023-03-07T04:56:39.036Z,11.60
2023-03-07T04:59:06.667Z,11.60
2023-03-07T05:01:33.821Z,11.50
2023-03-07T05:04:01.378Z,11.50
2023-03-07T05:06:28.505Z,11.50
2023-03-07T05:08:55.554Z,11.50
2023-03-07T05:11:22.997Z,11.50
2023-03-07T05:13:51.808Z,11.40
2023-03-07T05:16:21.500Z,11.50
2023-03-07T05:18:49.041Z,11.50
2023-03-07T05:21:16.560Z,11.50
2023-03-07T05:23:43.598Z,11.50
2023-03-07T05:26:12.232Z,11.50
2023-03-07T05:28:39.317Z,11.50
2023-03-07T05:31:06.269Z,11.50
2023-03-07T05:33:33.724Z,11.50
2023-03-07T05:36:01.731Z,11.50
2023-03-07T05:38:29.967Z,11.50
2023-03-07T05:40:57.075Z,11.50
2023-03-07T05:43:24.752Z,11.50
2023-03-07T05:45:52.333Z,11.50
2023-03-07T05:48:19.503Z,11.60
2023-03-07T05:50:46.583Z,11.50
2023-03-07T05:53:13.990Z,11.50
2023-03-07T05:55:41.099Z,11.60
2023-03-07T05:58:08.162Z,11.60
2023-03-07T06:00:35.235Z,11.70
2023-03-07T06:03:04.031Z,11.70
2023-03-07T06:05:32.005Z,11.80
2023-03-07T06:07:59.112Z,11.80
2023-03-07T06:10:26.174Z,11.80
2023-03-07T06:12:54.194Z,11.80
2023-03-07T06:15:24.272Z,11.80
2023-03-07T06:17:54.700Z,11.80
2023-03-07T06:20:21.905Z,11.80
2023-03-07T06:22:49.799Z,11.80
2023-03-07T06:25:17.257Z,11.80
2023-03-07T06:27:44.416Z,11.80
2023-03-07T06:30:12.395Z,11.80
2023-03-07T06:32:40.234Z,11.80
2023-03-07T06:35:08.708Z,11.80
2023-03-07T06:37:37.068Z,11.80
2023-03-07T06:40:06.366Z,11.80
2023-03-07T06:42:35.939Z,11.80
2023-03-07T06:45:04.991Z,11.80
2023-03-07T06:47:32.020Z,11.90
2023-03-07T06:49:59.685Z,11.90
2023-03-07T06:52:26.850Z,11.90
2023-03-07T06:54:53.785Z,11.90
2023-03-07T06:57:21.065Z,12.00
2023-03-07T06:59:48.301Z,12.00
2023-03-07T07:02:15.820Z,12.00
2023-03-07T07:04:43.056Z,12.00
2023-03-07T07:07:10.248Z,12.00
2023-03-07T07:09:37.275Z,12.10
2023-03-07T07:12:05.993Z,12.10
2023-03-07T07:14:34.762Z,12.10
2023-03-07T07:17:02.144Z,12.10
2023-03-07T07:19:29.408Z,12.10
2023-03-07T07:21:58.253Z,12.20
2023-03-07T07:24:25.309Z,12.10
2023-03-07T07:26:53.879Z,12.20
2023-03-07T07:29:21.095Z,12.20
2023-03-07T07:31:49.909Z,12.20
2023-03-07T07:34:18.993Z,12.20
2023-03-07T07:36:47.072Z,12.30
2023-03-07T07:39:15.353Z,12.30
2023-03-07T07:41:45.364Z,12.40
2023-03-07T07:44:13.415Z,12.40
2023-03-07T07:47:01.728Z,12.40
2023-03-07T07:49:28.840Z,12.50
2023-03-07T07:51:55.968Z,12.50
2023-03-07T07:54:23.152Z,12.50
2023-03-07T07:56:50.511Z,12.60
2023-03-07T07:59:18.395Z,12.60
2023-03-07T08:01:45.447Z,12.70
2023-03-07T08:04:12.746Z,12.70
2023-03-07T08:06:39.828Z,12.70
2023-03-07T08:09:07.052Z,12.80
2023-03-07T08:11:34.871Z,12.80
2023-03-07T08:14:03.210Z,12.80
2023-03-07T08:16:30.188Z,12.90
2023-03-07T08:18:57.670Z,12.90
2023-03-07T08:21:26.135Z,12.90
2023-03-07T08:23:56.342Z,13.00
2023-03-07T08:26:23.909Z,13.00
2023-03-07T08:28:50.883Z,13.00
2023-03-07T08:31:23.541Z,13.00
2023-03-07T08:33:51.400Z,13.00
2023-03-07T08:36:18.886Z,13.10
2023-03-07T08:38:51.691Z,13.10
2023-03-07T08:41:21.211Z,13.10
2023-03-07T08:43:48.718Z,13.20
2023-03-07T08:46:16.019Z,13.20
2023-03-07T08:48:43.133Z,13.20
2023-03-07T08:51:15.707Z,13.20
2023-03-07T08:53:43.612Z,13.20
2023-03-07T08:56:13.546Z,13.20
2023-03-07T08:58:41.334Z,13.20
2023-03-07T09:01:08.943Z,13.30
2023-03-07T09:03:36.739Z,13.30
2023-03-07T09:06:05.304Z,13.30
2023-03-07T09:08:33.033Z,13.30
2023-03-07T09:11:03.261Z,13.40
2023-03-07T09:13:30.287Z,13.30
2023-03-07T09:15:57.317Z,13.30
2023-03-07T09:18:24.312Z,13.30
2023-03-07T09:20:51.256Z,13.30
2023-03-07T09:23:18.213Z,13.30
2023-03-07T09:25:45.258Z,13.30
2023-03-07T09:28:12.185Z,13.30
2023-03-07T09:30:39.166Z,13.30
2023-03-07T09:33:06.081Z,13.30
2023-03-07T09:35:33.230Z,13.30
2023-03-07T09:38:00.562Z,13.30
2023-03-07T09:40:28.239Z,13.30
2023-03-07T09:43:07.317Z,13.30
2023-03-07T09:45:39.563Z,13.30
2023-03-07T09:48:42.317Z,13.30
2023-03-07T09:51:19.984Z,13.30
2023-03-07T09:54:01.549Z,13.30
2023-03-07T09:56:54.459Z,13.30
2023-03-07T09:59:39.760Z,13.30
2023-03-07T10:02:26.654Z,13.30
2023-03-07T10:05:08.586Z,13.30
2023-03-07T10:07:36.738Z,13.30
2023-03-07T10:10:14.250Z,13.30
2023-03-07T10:12:53.201Z,13.30
2023-03-07T10:15:35.819Z,13.30
2023-03-07T10:18:31.605Z,13.40
2023-03-07T10:21:22.307Z,13.30
2023-03-07T10:24:17.233Z,13.40
2023-03-07T10:27:05.581Z,13.50
2023-03-07T10:30:06.351Z,13.50
2023-03-07T10:32:51.848Z,13.50
2023-03-07T10:35:24.362Z,13.50
2023-03-07T10:38:09.641Z,13.50
2023-03-07T10:40:52.143Z,13.50
2023-03-07T10:43:28.730Z,13.60
2023-03-07T10:46:27.421Z,13.60
2023-03-07T10:48:58.658Z,13.60
2023-03-07T10:52:01.184Z,13.70
2023-03-07T10:54:38.848Z,13.70
2023-03-07T10:57:09.473Z,13.70
2023-03-07T10:59:38.736Z,13.70
2023-03-07T11:02:31.540Z,13.60
2023-03-07T11:04:59.406Z,13.60
2023-03-07T11:07:28.613Z,13.70
2023-03-07T11:09:57.402Z,13.70
2023-03-07T11:12:27.319Z,13.70
2023-03-07T11:14:58.047Z,13.80
2023-03-07T11:17:40.010Z,13.90
2023-03-07T11:20:49.347Z,13.90
2023-03-07T11:23:25.938Z,14.00
2023-03-07T11:25:55.013Z,14.00
2023-03-07T11:28:33.639Z,14.00
2023-03-07T11:31:41.696Z,14.10
2023-03-07T11:34:27.300Z,14.10
2023-03-07T11:37:12.169Z,14.20
2023-03-07T11:39:55.247Z,14.20
2023-03-07T11:42:28.238Z,14.30
2023-03-07T11:45:27.046Z,14.40
2023-03-07T11:48:19.673Z,14.40
2023-03-07T11:50:55.308Z,14.50
2023-03-07T11:53:42.988Z,14.60
2023-03-07T11:56:19.055Z,14.50
2023-03-07T11:59:21.218Z,14.60
2023-03-07T12:01:58.358Z,14.50
2023-03-07T12:04:56.894Z,14.50
2023-03-07T12:07:32.806Z,14.50
2023-03-07T12:10:30.433Z,14.60
2023-03-07T12:13:36.659Z,14.60
2023-03-07T12:16:19.804Z,14.70
2023-03-07T12:19:15.665Z,14.70
2023-03-07T12:22:19.975Z,14.70
2023-03-07T12:24:55.607Z,14.70
2023-03-07T12:27:48.721Z,14.80
2023-03-07T12:30:21.792Z,14.80
2023-03-07T12:32:50.703Z,14.80
2023-03-07T12:35:45.215Z,14.80
2023-03-07T12:38:27.555Z,14.80
2023-03-07T12:41:01.645Z,14.80
2023-03-07T12:43:39.293Z,14.90
2023-03-07T12:46:38.798Z,15.00
2023-03-07T12:49:33.864Z,15.10
2023-03-07T12:52:10.828Z,15.10
2023-03-07T12:54:42.240Z,15.20
2023-03-07T12:57:16.279Z,15.20
2023-03-07T12:59:44.317Z,15.20
2023-03-07T13:02:13.786Z,15.20
2023-03-07T13:04:44.960Z,15.20
2023-03-07T13:07:24.761Z,15.20
2023-03-07T13:09:54.602Z,15.20
2023-03-07T13:12:31.877Z,15.20
2023-03-07T13:15:16.640Z,15.20
2023-03-07T13:17:43.541Z,15.30
2023-03-07T13:20:19.334Z,15.40
2023-03-07T13:22:46.287Z,15.40
2023-03-07T13:25:22.667Z,15.40
2023-03-07T13:27:58.333Z,15.40
2023-03-07T13:30:26.197Z,15.50
2023-03-07T13:32:55.961Z,15.50
2023-03-07T13:35:29.442Z,15.50
2023-03-07T13:37:59.775Z,15.50
2023-03-07T13:40:35.687Z,15.50
2023-03-07T13:43:24.122Z,15.50
2023-03-07T13:45:56.412Z,15.50
2023-03-07T13:48:32.537Z,15.60
2023-03-07T13:51:00.124Z,15.70
2023-03-07T13:53:50.616Z,15.70
2023-03-07T13:56:25.011Z,15.70
2023-03-07T13:58:59.501Z,15.70
2023-03-07T14:01:44.230Z,15.70
2023-03-07T14:04:13.859Z,15.80
2023-03-07T14:06:58.491Z,15.90
2023-03-07T14:10:21.416Z,15.90
2023-03-07T14:13:05.564Z,15.90
2023-03-07T14:15:51.219Z,15.80
2023-03-07T14:18:43.249Z,15.80
2023-03-07T14:21:37.128Z,15.90
2023-03-07T14:24:19.093Z,16.10
2023-03-07T14:26:50.836Z,16.20
2023-03-07T14:29:22.244Z,16.40
2023-03-07T14:31:53.057Z,16.50
2023-03-07T14:34:29.013Z,16.50
2023-03-07T14:37:15.587Z,16.40
2023-03-07T14:40:01.730Z,16.40
2023-03-07T14:42:40.931Z,16.50
2023-03-07T14:45:16.509Z,16.60
2023-03-07T14:47:46.227Z,16.80
2023-03-07T14:50:25.131Z,16.90
2023-03-07T14:52:59.105Z,16.80
2023-03-07T14:55:33.966Z,16.80
2023-03-07T14:58:01.093Z,16.70
2023-03-07T15:00:29.361Z,16.60
2023-03-07T15:03:07.962Z,16.50
2023-03-07T15:05:38.409Z,16.60
2023-03-07T15:08:31.467Z,16.60
2023-03-07T15:11:13.388Z,16.70
2023-03-07T15:13:55.147Z,16.70
2023-03-07T15:16:44.298Z,16.50
2023-03-07T15:19:15.587Z,16.40
